Terminal Aerodrome Forecast
Issued by NWS

Home | Current Version | Previous Version | Text Only | Print | Product List | Glossary On
Versions: 1 2 3 4 5 6 7 8 9 10
234
FTUS42 KMLB 240520
TAFLEE
TAF
KLEE 240520Z 2406/2506 23004KT P6SM BKN045 OVC060
     FM240700 24006KT P6SM FEW020
     FM241200 28009KT P6SM SCT030
      TEMPO 2412/2414 BKN035
     FM241800 28014G22KT P6SM SCT040
     FM250000 26009KT P6SM SCT250=

USA.gov is the U.S. government's official web portal to all federal, state and local government web resources and services.